sensor_id;sensor_type;location;lat;lon;timestamp;temperature;humidity
23497;DHT22;11925;48.122;11.560;2024-01-15T00:01:42;8.40;71.70
23497;DHT22;11925;48.122;11.560;2024-01-15T00:04:11;8.40;71.90
23497;DHT22;11925;48.122;11.560;2024-01-15T00:06:40;8.40;72.10
23497;DHT22;11925;48.122;11.560;2024-01-15T00:09:10;8.30;72.40
23497;DHT22;11925;48.122;11.560;2024-01-15T00:11:38;8.30;72.50
23497;DHT22;11925;48.122;11.560;2024-01-15T00:14:07;8.30;72.60
23497;DHT22;11925;48.122;11.560;2024-01-15T00:16:35;8.30;72.80
23497;DHT22;11925;48.122;11.560;2024-01-15T00:19:04;8.30;72.80
23497;DHT22;11925;48.122;11.560;2024-01-15T00:21:32;8.30;73.00
23497;DHT22;11925;48.122;11.560;2024-01-15T00:24:01;8.30;73.10
23497;DHT22;11925;48.122;11.560;2024-01-15T00:26:31;8.20;73.20
23497;DHT22;11925;48.122;11.560;2024-01-15T00:28:59;8.20;73.30
23497;DHT22;11925;48.122;11.560;2024-01-15T00:31:27;8.20;73.40
23497;DHT22;11925;48.122;11.560;2024-01-15T00:33:57;8.20;73.50
23497;DHT22;11925;48.122;11.560;2024-01-15T00:36:26;8.10;73.60
23497;DHT22;11925;48.122;11.560;2024-01-15T00:38:54;8.10;73.70
23497;DHT22;11925;48.122;11.560;2024-01-15T00:41:23;8.20;81.20
23497;DHT22;11925;48.122;11.560;2024-01-15T00:46:21;8.10;73.10
23497;DHT22;11925;48.122;11.560;2024-01-15T00:48:50;8.10;74.00
23497;DHT22;11925;48.122;11.560;2024-01-15T00:51:19;8.10;74.10
23497;DHT22;11925;48.122;11.560;2024-01-15T00:53:47;8.10;74.10
23497;DHT22;11925;48.122;11.560;2024-01-15T00:56:15;8.00;74.10
23497;DHT22;11925;48.122;11.560;2024-01-15T00:58:44;8.00;74.10
23497;DHT22;11925;48.122;11.560;2024-01-15T01:01:14;8.00;74.30
23497;DHT22;11925;48.122;11.560;2024-01-15T01:03:42;8.00;74.10
23497;DHT22;11925;48.122;11.560;2024-01-15T01:06:11;8.00;74.10
23497;DHT22;11925;48.122;11.560;2024-01-15T01:08:39;8.00;74.20
23497;DHT22;11925;48.122;11.560;2024-01-15T01:11:13;8.00;74.30
23497;DHT22;11925;48.122;11.560;2024-01-15T01:13:41;8.00;74.20
23497;DHT22;11925;48.122;11.560;2024-01-15T01:16:10;8.00;74.20
23497;DHT22;11925;48.122;11.560;2024-01-15T01:18:40;8.00;74.30
23497;DHT22;11925;48.122;11.560;2024-01-15T01:21:08;8.00;74.20
23497;DHT22;11925;48.122;11.560;2024-01-15T01:23:37;7.90;73.60
23497;DHT22;11925;48.122;11.560;2024-01-15T01:26:05;7.80;73.10
23497;DHT22;11925;48.122;11.560;2024-01-15T01:28:34;7.70;72.70
23497;DHT22;11925;48.122;11.560;2024-01-15T01:31:03;7.60;72.20
23497;DHT22;11925;48.122;11.560;2024-01-15T01:33:31;7.60;71.70
23497;DHT22;11925;48.122;11.560;2024-01-15T01:36:02;7.50;71.40
23497;DHT22;11925;48.122;11.560;2024-01-15T01:38:35;7.50;71.10
23497;DHT22;11925;48.122;11.560;2024-01-15T01:41:03;7.50;70.80
23497;DHT22;11925;48.122;11.560;2024-01-15T01:43:32;7.40;70.50
23497;DHT22;11925;48.122;11.560;2024-01-15T01:46:01;7.40;70.40
23497;DHT22;11925;48.122;11.560;2024-01-15T01:48:30;7.40;70.20
23497;DHT22;11925;48.122;11.560;2024-01-15T01:51:02;7.30;69.90
23497;DHT22;11925;48.122;11.560;2024-01-15T01:53:33;7.30;69.70
23497;DHT22;11925;48.122;11.560;2024-01-15T01:56:03;7.40;69.70
23497;DHT22;11925;48.122;11.560;2024-01-15T01:58:32;7.30;69.50
23497;DHT22;11925;48.122;11.560;2024-01-15T02:01:01;7.30;69.50
23497;DHT22;11925;48.122;11.560;2024-01-15T02:03:31;7.30;69.50
23497;DHT22;11925;48.122;11.560;2024-01-15T02:06:01;7.30;69.30
23497;DHT22;11925;48.122;11.560;2024-01-15T02:08:30;7.30;69.30
23497;DHT22;11925;48.122;11.560;2024-01-15T02:10:59;7.30;69.20
23497;DHT22;11925;48.122;11.560;2024-01-15T02:13:27;7.30;69.20
23497;DHT22;11925;48.122;11.560;2024-01-15T02:15:55;7.30;69.00
23497;DHT22;11925;48.122;11.560;2024-01-15T02:18:24;7.30;69.20
23497;DHT22;11925;48.122;11.560;2024-01-15T02:20:53;7.30;69.00
23497;DHT22;11925;48.122;11.560;2024-01-15T02:23:22;7.30;68.90
23497;DHT22;11925;48.122;11.560;2024-01-15T02:25:51;7.20;68.80
23497;DHT22;11925;48.122;11.560;2024-01-15T02:28:20;7.20;68.80
23497;DHT22;11925;48.122;11.560;2024-01-15T02:30:48;7.20;68.80
23497;DHT22;11925;48.122;11.560;2024-01-15T02:33:17;7.20;68.90
23497;DHT22;11925;48.122;11.560;2024-01-15T02:35:45;7.20;69.00
23497;DHT22;11925;48.122;11.560;2024-01-15T02:38:17;7.20;69.00
23497;DHT22;11925;48.122;11.560;2024-01-15T02:40:47;7.20;69.00
23497;DHT22;11925;48.122;11.560;2024-01-15T02:43:15;7.20;69.10
23497;DHT22;11925;48.122;11.560;2024-01-15T02:45:46;7.20;69.10
23497;DHT22;11925;48.122;11.560;2024-01-15T02:48:15;7.10;69.00
23497;DHT22;11925;48.122;11.560;2024-01-15T02:50:44;7.10;70.00
23497;DHT22;11925;48.122;11.560;2024-01-15T02:53:12;7.20;69.30
23497;DHT22;11925;48.122;11.560;2024-01-15T02:55:41;7.20;69.30
23497;DHT22;11925;48.122;11.560;2024-01-15T02:58:11;7.10;69.20
23497;DHT22;11925;48.122;11.560;2024-01-15T03:00:39;7.10;69.40
23497;DHT22;11925;48.122;11.560;2024-01-15T03:03:07;7.10;69.40
23497;DHT22;11925;48.122;11.560;2024-01-15T03:05:36;7.10;69.40
23497;DHT22;11925;48.122;11.560;2024-01-15T03:08:05;7.10;69.50
23497;DHT22;11925;48.122;11.560;2024-01-15T03:10:33;7.10;69.50
23497;DHT22;11925;48.122;11.560;2024-01-15T03:13:02;7.10;69.40
23497;DHT22;11925;48.122;11.560;2024-01-15T03:15:32;7.10;69.50
23497;DHT22;11925;48.122;11.560;2024-01-15T03:18:00;7.10;69.50
23497;DHT22;11925;48.122;11.560;2024-01-15T03:20:29;7.00;69.50
23497;DHT22;11925;48.122;11.560;2024-01-15T03:22:57;7.00;69.50
23497;DHT22;11925;48.122;11.560;2024-01-15T03:25:26;7.00;69.50
23497;DHT22;11925;48.122;11.560;2024-01-15T03:27:54;7.00;69.50
23497;DHT22;11925;48.122;11.560;2024-01-15T03:30:23;7.00;69.40
23497;DHT22;11925;48.122;11.560;2024-01-15T03:32:53;6.90;69.20
23497;DHT22;11925;48.122;11.560;2024-01-15T03:35:21;7.00;69.20
23497;DHT22;11925;48.122;11.560;2024-01-15T03:37:49;7.00;69.00
23497;DHT22;11925;48.122;11.560;2024-01-15T03:40:18;7.00;68.80
23497;DHT22;11925;48.122;11.560;2024-01-15T03:42:49;7.00;69.00
23497;DHT22;11925;48.122;11.560;2024-01-15T03:45:18;7.00;68.90
23497;DHT22;11925;48.122;11.560;2024-01-15T03:47:46;7.00;69.00
23497;DHT22;11925;48.122;11.560;2024-01-15T03:50:16;7.00;68.80
23497;DHT22;11925;48.122;11.560;2024-01-15T03:52:45;7.00;69.00
23497;DHT22;11925;48.122;11.560;2024-01-15T03:55:13;7.00;68.80
23497;DHT22;11925;48.122;11.560;2024-01-15T03:57:42;7.00;68.90
23497;DHT22;11925;48.122;11.560;2024-01-15T04:00:11;7.00;69.00
23497;DHT22;11925;48.122;11.560;2024-01-15T04:02:40;6.90;69.00
23497;DHT22;11925;48.122;11.560;2024-01-15T04:05:09;7.00;69.00
23497;DHT22;11925;48.122;11.560;2024-01-15T04:07:38;7.00;69.00
23497;DHT22;11925;48.122;11.560;2024-01-15T04:10:07;6.90;69.00
23497;DHT22;11925;48.122;11.560;2024-01-15T04:12:36;6.90;68.80
23497;DHT22;11925;48.122;11.560;2024-01-15T04:15:05;6.90;68.80
23497;DHT22;11925;48.122;11.560;2024-01-15T04:17:34;6.90;68.70
23497;DHT22;11925;48.122;11.560;2024-01-15T04:20:03;6.90;68.70
23497;DHT22;11925;48.122;11.560;2024-01-15T04:22:32;6.90;68.70
23497;DHT22;11925;48.122;11.560;2024-01-15T04:25:03;6.90;68.80
23497;DHT22;11925;48.122;11.560;2024-01-15T04:27:32;6.90;68.70
23497;DHT22;11925;48.122;11.560;2024-01-15T04:30:00;7.00;68.80
23497;DHT22;11925;48.122;11.560;2024-01-15T04:32:29;7.00;68.70
23497;DHT22;11925;48.122;11.560;2024-01-15T04:34:58;6.90;68.70
23497;DHT22;11925;48.122;11.560;2024-01-15T04:37:26;6.90;68.60
23497;DHT22;11925;48.122;11.560;2024-01-15T04:39:55;6.90;68.70
23497;DHT22;11925;48.122;11.560;2024-01-15T04:42:26;7.00;68.70
23497;DHT22;11925;48.122;11.560;2024-01-15T04:44:54;6.90;68.80
23497;DHT22;11925;48.122;11.560;2024-01-15T04:47:23;6.90;68.70
23497;DHT22;11925;48.122;11.560;2024-01-15T04:49:51;6.90;68.80
23497;DHT22;11925;48.122;11.560;2024-01-15T04:52:20;6.90;68.80
23497;DHT22;11925;48.122;11.560;2024-01-15T04:54:48;6.90;68.90
23497;DHT22;11925;48.122;11.560;2024-01-15T04:57:17;6.90;68.80
23497;DHT22;11925;48.122;11.560;2024-01-15T04:59:47;6.90;68.90
23497;DHT22;11925;48.122;11.560;2024-01-15T05:02:15;6.90;69.00
23497;DHT22;11925;48.122;11.560;2024-01-15T05:04:44;6.90;68.80
23497;DHT22;11925;48.122;11.560;2024-01-15T05:07:12;6.90;69.00
23497;DHT22;11925;48.122;11.560;2024-01-15T05:09:40;6.90;69.00
23497;DHT22;11925;48.122;11.560;2024-01-15T05:12:09;6.90;68.80
23497;DHT22;11925;48.122;11.560;2024-01-15T05:14:38;6.90;68.80
23497;DHT22;11925;48.122;11.560;2024-01-15T05:17:08;6.90;68.80
23497;DHT22;11925;48.122;11.560;2024-01-15T05:19:37;6.90;68.70
23497;DHT22;11925;48.122;11.560;2024-01-15T05:22:06;6.90;68.90
23497;DHT22;11925;48.122;11.560;2024-01-15T05:24:34;6.90;68.80
23497;DHT22;11925;48.122;11.560;2024-01-15T05:27:03;6.90;68.90
23497;DHT22;11925;48.122;11.560;2024-01-15T05:29:32;6.90;68.80
23497;DHT22;11925;48.122;11.560;2024-01-15T05:32:01;6.90;68.80
23497;DHT22;11925;48.122;11.560;2024-01-15T05:34:30;6.90;68.90
23497;DHT22;11925;48.122;11.560;2024-01-15T05:37:00;6.80;68.80
23497;DHT22;11925;48.122;11.560;2024-01-15T05:39:28;6.90;68.80
23497;DHT22;11925;48.122;11.560;2024-01-15T05:41:58;6.80;68.90
23497;DHT22;11925;48.122;11.560;2024-01-15T05:44:26;6.80;68.80
23497;DHT22;11925;48.122;11.560;2024-01-15T05:46:55;6.90;68.80
23497;DHT22;11925;48.122;11.560;2024-01-15T05:49:23;6.80;68.70
23497;DHT22;11925;48.122;11.560;2024-01-15T05:51:53;6.80;68.60
23497;DHT22;11925;48.122;11.560;2024-01-15T05:54:22;6.80;68.70
23497;DHT22;11925;48.122;11.560;2024-01-15T05:56:50;6.80;68.70
23497;DHT22;11925;48.122;11.560;2024-01-15T05:59:19;6.80;68.60
23497;DHT22;11925;48.122;11.560;2024-01-15T06:01:47;6.80;68.70
23497;DHT22;11925;48.122;11.560;2024-01-15T06:04:16;6.80;68.60
23497;DHT22;11925;48.122;11.560;2024-01-15T06:06:45;6.80;68.70
23497;DHT22;11925;48.122;11.560;2024-01-15T06:09:15;6.80;68.90
23497;DHT22;11925;48.122;11.560;2024-01-15T06:11:43;6.80;68.80
23497;DHT22;11925;48.122;11.560;2024-01-15T06:14:12;6.80;68.80
23497;DHT22;11925;48.122;11.560;2024-01-15T06:16:40;6.80;68.70
23497;DHT22;11925;48.122;11.560;2024-01-15T06:19:08;6.80;68.70
23497;DHT22;11925;48.122;11.560;2024-01-15T06:21:37;6.80;68.60
23497;DHT22;11925;48.122;11.560;2024-01-15T06:24:06;6.80;68.50
23497;DHT22;11925;48.122;11.560;2024-01-15T06:26:38;6.80;68.50
23497;DHT22;11925;48.122;11.560;2024-01-15T06:29:06;6.80;68.50
23497;DHT22;11925;48.122;11.560;2024-01-15T06:31:35;6.80;68.60
23497;DHT22;11925;48.122;11.560;2024-01-15T06:34:04;6.80;68.70
23497;DHT22;11925;48.122;11.560;2024-01-15T06:36:32;6.80;68.60
23497;DHT22;11925;48.122;11.560;2024-01-15T06:39:01;6.80;68.60
23497;DHT22;11925;48.122;11.560;2024-01-15T06:41:29;6.80;68.60
23497;DHT22;11925;48.122;11.560;2024-01-15T06:43:59;6.70;68.60
23497;DHT22;11925;48.122;11.560;2024-01-15T06:46:28;6.50;68.50
23497;DHT22;11925;48.122;11.560;2024-01-15T06:48:56;6.80;68.60
23497;DHT22;11925;48.122;11.560;2024-01-15T06:51:25;6.80;68.70
23497;DHT22;11925;48.122;11.560;2024-01-15T06:53:53;6.80;68.60
23497;DHT22;11925;48.122;11.560;2024-01-15T06:56:22;6.80;68.60
23497;DHT22;11925;48.122;11.560;2024-01-15T06:58:50;6.80;68.60
23497;DHT22;11925;48.122;11.560;2024-01-15T07:01:20;6.80;68.80
23497;DHT22;11925;48.122;11.560;2024-01-15T07:03:48;6.70;68.80
23497;DHT22;11925;48.122;11.560;2024-01-15T07:06:17;6.80;68.90
23497;DHT22;11925;48.122;11.560;2024-01-15T07:08:46;6.80;68.90
23497;DHT22;11925;48.122;11.560;2024-01-15T07:11:15;6.80;69.00
23497;DHT22;11925;48.122;11.560;2024-01-15T07:13:43;6.80;69.00
23497;DHT22;11925;48.122;11.560;2024-01-15T07:16:14;6.80;69.20
23497;DHT22;11925;48.122;11.560;2024-01-15T07:19:04;6.80;69.20
23497;DHT22;11925;48.122;11.560;2024-01-15T07:21:33;6.80;69.20
23497;DHT22;11925;48.122;11.560;2024-01-15T07:24:02;6.80;69.30
23497;DHT22;11925;48.122;11.560;2024-01-15T07:26:30;6.80;69.30
23497;DHT22;11925;48.122;11.560;2024-01-15T07:28:59;6.80;69.40
23497;DHT22;11925;48.122;11.560;2024-01-15T07:31:28;6.80;69.50
23497;DHT22;11925;48.122;11.560;2024-01-15T07:33:56;6.80;69.60
23497;DHT22;11925;48.122;11.560;2024-01-15T07:36:26;6.80;69.60
23497;DHT22;11925;48.122;11.560;2024-01-15T07:38:55;6.80;69.70
23497;DHT22;11925;48.122;11.560;2024-01-15T07:41:23;6.80;69.70
23497;DHT22;11925;48.122;11.560;2024-01-15T07:43:52;6.80;69.70
23497;DHT22;11925;48.122;11.560;2024-01-15T07:46:20;6.80;69.90
23497;DHT22;11925;48.122;11.560;2024-01-15T07:48:49;6.80;69.90
23497;DHT22;11925;48.122;11.560;2024-01-15T07:51:23;6.80;69.90
23497;DHT22;11925;48.122;11.560;2024-01-15T07:53:53;6.80;70.10
23497;DHT22;11925;48.122;11.560;2024-01-15T07:56:22;6.80;70.00
23497;DHT22;11925;48.122;11.560;2024-01-15T07:58:50;6.80;70.10
23497;DHT22;11925;48.122;11.560;2024-01-15T08:01:19;6.80;70.20
23497;DHT22;11925;48.122;11.560;2024-01-15T08:03:48;6.80;70.30
23497;DHT22;11925;48.122;11.560;2024-01-15T08:06:16;6.80;70.40
23497;DHT22;11925;48.122;11.560;2024-01-15T08:08:45;6.80;70.50
23497;DHT22;11925;48.122;11.560;2024-01-15T08:11:15;6.80;70.50
23497;DHT22;11925;48.122;11.560;2024-01-15T08:13:43;6.90;70.70
23497;DHT22;11925;48.122;11.560;2024-01-15T08:16:12;6.90;70.80
23497;DHT22;11925;48.122;11.560;2024-01-15T08:18:41;6.90;70.80
23497;DHT22;11925;48.122;11.560;2024-01-15T08:21:14;6.90;70.60
23497;DHT22;11925;48.122;11.560;2024-01-15T08:23:42;6.90;70.80
23497;DHT22;11925;48.122;11.560;2024-01-15T08:26:11;6.80;70.70
23497;DHT22;11925;48.122;11.560;2024-01-15T08:28:41;6.80;70.90
23497;DHT22;11925;48.122;11.560;2024-01-15T08:31:09;6.80;70.90
23497;DHT22;11925;48.122;11.560;2024-01-15T08:33:38;6.90;71.00
23497;DHT22;11925;48.122;11.560;2024-01-15T08:36:07;6.90;70.80
23497;DHT22;11925;48.122;11.560;2024-01-15T08:38:35;6.80;70.70
23497;DHT22;11925;48.122;11.560;2024-01-15T08:41:04;6.80;70.90
23497;DHT22;11925;48.122;11.560;2024-01-15T08:43:33;6.80;70.90
23497;DHT22;11925;48.122;11.560;2024-01-15T08:46:03;6.80;70.90
23497;DHT22;11925;48.122;11.560;2024-01-15T08:48:32;6.80;71.00
23497;DHT22;11925;48.122;11.560;2024-01-15T08:51:01;6.80;70.70
23497;DHT22;11925;48.122;11.560;2024-01-15T08:53:29;6.80;70.70
23497;DHT22;11925;48.122;11.560;2024-01-15T08:55:58;6.80;70.80
23497;DHT22;11925;48.122;11.560;2024-01-15T08:58:27;6.80;70.80
23497;DHT22;11925;48.122;11.560;2024-01-15T09:00:55;6.80;71.00
23497;DHT22;11925;48.122;11.560;2024-01-15T09:03:26;6.80;71.00
23497;DHT22;11925;48.122;11.560;2024-01-15T09:05:55;6.80;71.00
23497;DHT22;11925;48.122;11.560;2024-01-15T09:08:23;6.80;71.00
23497;DHT22;11925;48.122;11.560;2024-01-15T09:10:53;6.80;71.10
23497;DHT22;11925;48.122;11.560;2024-01-15T09:13:22;6.80;71.00
23497;DHT22;11925;48.122;11.560;2024-01-15T09:15:50;6.80;71.00
23497;DHT22;11925;48.122;11.560;2024-01-15T09:18:19;6.80;71.00
23497;DHT22;11925;48.122;11.560;2024-01-15T09:20:49;6.80;71.00
23497;DHT22;11925;48.122;11.560;2024-01-15T09:23:17;6.80;71.00
23497;DHT22;11925;48.122;11.560;2024-01-15T09:25:46;6.80;71.00
23497;DHT22;11925;48.122;11.560;2024-01-15T09:28:15;6.80;71.10
23497;DHT22;11925;48.122;11.560;2024-01-15T09:30:44;6.80;71.10
23497;DHT22;11925;48.122;11.560;2024-01-15T09:33:14;6.80;71.00
23497;DHT22;11925;48.122;11.560;2024-01-15T09:35:43;6.80;71.10
23497;DHT22;11925;48.122;11.560;2024-01-15T09:38:14;6.80;71.00
23497;DHT22;11925;48.122;11.560;2024-01-15T09:40:44;6.80;70.90
23497;DHT22;11925;48.122;11.560;2024-01-15T09:43:14;6.80;71.00
23497;DHT22;11925;48.122;11.560;2024-01-15T09:45:43;6.80;71.00
23497;DHT22;11925;48.122;11.560;2024-01-15T09:48:12;6.80;70.90
23497;DHT22;11925;48.122;11.560;2024-01-15T09:50:41;6.80;70.70
23497;DHT22;11925;48.122;11.560;2024-01-15T09:53:10;6.80;70.80
23497;DHT22;11925;48.122;11.560;2024-01-15T09:55:41;6.80;70.70
23497;DHT22;11925;48.122;11.560;2024-01-15T09:58:10;6.80;70.50
23497;DHT22;11925;48.122;11.560;2024-01-15T10:00:39;6.80;70.50
23497;DHT22;11925;48.122;11.560;2024-01-15T10:03:11;6.80;70.30
23497;DHT22;11925;48.122;11.560;2024-01-15T10:05:40;6.80;70.30
23497;DHT22;11925;48.122;11.560;2024-01-15T10:08:08;6.90;70.50
23497;DHT22;11925;48.122;11.560;2024-01-15T10:10:38;6.80;70.30
23497;DHT22;11925;48.122;11.560;2024-01-15T10:13:08;6.80;70.30
23497;DHT22;11925;48.122;11.560;2024-01-15T10:15:38;6.80;70.30
23497;DHT22;11925;48.122;11.560;2024-01-15T10:18:06;6.80;70.30
23497;DHT22;11925;48.122;11.560;2024-01-15T10:20:35;6.80;70.40
23497;DHT22;11925;48.122;11.560;2024-01-15T10:23:04;6.80;70.40
23497;DHT22;11925;48.122;11.560;2024-01-15T10:25:33;6.80;70.40
23497;DHT22;11925;48.122;11.560;2024-01-15T10:28:02;6.80;70.30
23497;DHT22;11925;48.122;11.560;2024-01-15T10:30:33;6.80;70.50
23497;DHT22;11925;48.122;11.560;2024-01-15T10:33:03;6.80;70.50
23497;DHT22;11925;48.122;11.560;2024-01-15T10:35:34;6.80;70.70
23497;DHT22;11925;48.122;11.560;2024-01-15T10:38:04;6.80;70.70
23497;DHT22;11925;48.122;11.560;2024-01-15T10:40:34;6.80;70.70
23497;DHT22;11925;48.122;11.560;2024-01-15T10:43:03;6.80;70.90
23497;DHT22;11925;48.122;11.560;2024-01-15T10:45:33;6.90;70.90
23497;DHT22;11925;48.122;11.560;2024-01-15T10:48:02;6.90;70.90
23497;DHT22;11925;48.122;11.560;2024-01-15T10:50:32;6.80;70.90
23497;DHT22;11925;48.122;11.560;2024-01-15T10:53:01;6.90;71.10
23497;DHT22;11925;48.122;11.560;2024-01-15T10:55:30;6.90;71.10
23497;DHT22;11925;48.122;11.560;2024-01-15T10:58:00;6.90;71.00
23497;DHT22;11925;48.122;11.560;2024-01-15T11:00:29;6.90;70.90
23497;DHT22;11925;48.122;11.560;2024-01-15T11:03:00;6.90;70.90
23497;DHT22;11925;48.122;11.560;2024-01-15T11:05:33;6.90;71.10
23497;DHT22;11925;48.122;11.560;2024-01-15T11:08:02;6.90;71.20
23497;DHT22;11925;48.122;11.560;2024-01-15T11:10:41;6.90;71.30
23497;DHT22;11925;48.122;11.560;2024-01-15T11:13:13;6.90;71.20
23497;DHT22;11925;48.122;11.560;2024-01-15T11:16:00;6.90;71.40
23497;DHT22;11925;48.122;11.560;2024-01-15T11:18:32;6.90;71.50
23497;DHT22;11925;48.122;11.560;2024-01-15T11:21:26;6.90;71.50
23497;DHT22;11925;48.122;11.560;2024-01-15T11:23:58;6.90;71.50
23497;DHT22;11925;48.122;11.560;2024-01-15T11:26:35;6.90;71.60
23497;DHT22;11925;48.122;11.560;2024-01-15T11:29:05;6.90;71.60
23497;DHT22;11925;48.122;11.560;2024-01-15T11:31:56;6.90;71.60
23497;DHT22;11925;48.122;11.560;2024-01-15T11:34:51;6.90;71.60
23497;DHT22;11925;48.122;11.560;2024-01-15T11:37:21;6.90;71.70
23497;DHT22;11925;48.122;11.560;2024-01-15T11:39:54;6.90;71.60
23497;DHT22;11925;48.122;11.560;2024-01-15T11:42:23;6.90;71.60
23497;DHT22;11925;48.122;11.560;2024-01-15T11:44:52;6.90;71.50
23497;DHT22;11925;48.122;11.560;2024-01-15T11:47:55;6.90;71.50
23497;DHT22;11925;48.122;11.560;2024-01-15T11:50:30;6.90;71.50
23497;DHT22;11925;48.122;11.560;2024-01-15T11:53:01;7.00;71.40
23497;DHT22;11925;48.122;11.560;2024-01-15T11:55:34;6.90;71.40
23497;DHT22;11925;48.122;11.560;2024-01-15T11:58:07;6.90;71.30
23497;DHT22;11925;48.122;11.560;2024-01-15T12:00:39;6.90;71.20
23497;DHT22;11925;48.122;11.560;2024-01-15T12:03:09;6.90;72.00
23497;DHT22;11925;48.122;11.560;2024-01-15T12:05:39;7.00;71.10
23497;DHT22;11925;48.122;11.560;2024-01-15T12:08:09;6.90;71.20
23497;DHT22;11925;48.122;11.560;2024-01-15T12:10:39;6.80;71.00
23497;DHT22;11925;48.122;11.560;2024-01-15T12:13:11;7.00;71.10
23497;DHT22;11925;48.122;11.560;2024-01-15T12:15:41;7.00;71.10
23497;DHT22;11925;48.122;11.560;2024-01-15T12:18:13;6.90;70.90
23497;DHT22;11925;48.122;11.560;2024-01-15T12:20:44;7.00;71.00
23497;DHT22;11925;48.122;11.560;2024-01-15T12:23:14;7.00;71.00
23497;DHT22;11925;48.122;11.560;2024-01-15T12:25:44;7.00;71.20
23497;DHT22;11925;48.122;11.560;2024-01-15T12:28:13;7.10;72.20
23497;DHT22;11925;48.122;11.560;2024-01-15T12:30:41;6.90;71.30
23497;DHT22;11925;48.122;11.560;2024-01-15T12:33:11;7.00;71.40
23497;DHT22;11925;48.122;11.560;2024-01-15T12:35:40;7.00;71.50
23497;DHT22;11925;48.122;11.560;2024-01-15T12:38:10;7.00;71.50
23497;DHT22;11925;48.122;11.560;2024-01-15T12:40:39;7.00;71.50
23497;DHT22;11925;48.122;11.560;2024-01-15T12:43:10;7.00;71.60
23497;DHT22;11925;48.122;11.560;2024-01-15T12:45:38;7.00;71.80
23497;DHT22;11925;48.122;11.560;2024-01-15T12:48:07;7.00;72.60
23497;DHT22;11925;48.122;11.560;2024-01-15T12:50:36;7.00;72.60
23497;DHT22;11925;48.122;11.560;2024-01-15T12:53:04;7.00;71.80
23497;DHT22;11925;48.122;11.560;2024-01-15T12:55:34;7.00;71.80
23497;DHT22;11925;48.122;11.560;2024-01-15T12:58:03;7.00;71.80
23497;DHT22;11925;48.122;11.560;2024-01-15T13:00:32;7.00;71.90
23497;DHT22;11925;48.122;11.560;2024-01-15T13:03:02;7.00;71.90
23497;DHT22;11925;48.122;11.560;2024-01-15T13:05:32;7.10;72.20
23497;DHT22;11925;48.122;11.560;2024-01-15T13:08:02;7.10;72.20
23497;DHT22;11925;48.122;11.560;2024-01-15T13:10:31;7.10;72.30
23497;DHT22;11925;48.122;11.560;2024-01-15T13:13:01;7.10;72.50
23497;DHT22;11925;48.122;11.560;2024-01-15T13:15:30;7.10;72.60
23497;DHT22;11925;48.122;11.560;2024-01-15T13:17:58;7.10;72.80
23497;DHT22;11925;48.122;11.560;2024-01-15T13:20:27;7.10;72.90
23497;DHT22;11925;48.122;11.560;2024-01-15T13:22:56;7.10;73.00
23497;DHT22;11925;48.122;11.560;2024-01-15T13:25:24;7.10;73.20
23497;DHT22;11925;48.122;11.560;2024-01-15T13:27:53;7.10;73.40
23497;DHT22;11925;48.122;11.560;2024-01-15T13:30:22;7.10;73.40
23497;DHT22;11925;48.122;11.560;2024-01-15T13:32:51;7.10;73.60
23497;DHT22;11925;48.122;11.560;2024-01-15T13:35:21;7.10;73.70
23497;DHT22;11925;48.122;11.560;2024-01-15T13:37:49;7.10;73.70
23497;DHT22;11925;48.122;11.560;2024-01-15T13:40:18;8.00;96.20
23497;DHT22;11925;48.122;11.560;2024-01-15T13:42:47;7.20;97.50
23497;DHT22;11925;48.122;11.560;2024-01-15T13:45:16;7.20;96.20
23497;DHT22;11925;48.122;11.560;2024-01-15T13:47:46;7.40;96.50
23497;DHT22;11925;48.122;11.560;2024-01-15T13:50:15;7.20;93.60
23497;DHT22;11925;48.122;11.560;2024-01-15T13:52:43;7.20;90.70
23497;DHT22;11925;48.122;11.560;2024-01-15T13:55:12;7.20;92.30
23497;DHT22;11925;48.122;11.560;2024-01-15T13:57:40;7.20;90.40
23497;DHT22;11925;48.122;11.560;2024-01-15T14:00:10;7.20;90.20
23497;DHT22;11925;48.122;11.560;2024-01-15T14:02:40;7.20;89.40
23497;DHT22;11925;48.122;11.560;2024-01-15T14:05:10;7.20;88.30
23497;DHT22;11925;48.122;11.560;2024-01-15T14:07:40;5.30;91.70
23497;DHT22;11925;48.122;11.560;2024-01-15T14:10:10;7.10;92.70
23497;DHT22;11925;48.122;11.560;2024-01-15T14:12:39;7.20;98.90
23497;DHT22;11925;48.122;11.560;2024-01-15T14:15:08;6.90;90.30
23497;DHT22;11925;48.122;11.560;2024-01-15T14:17:37;7.20;95.30
23497;DHT22;11925;48.122;11.560;2024-01-15T14:20:07;7.10;96.20
23497;DHT22;11925;48.122;11.560;2024-01-15T14:22:38;7.20;96.30
23497;DHT22;11925;48.122;11.560;2024-01-15T14:25:07;7.20;95.00
23497;DHT22;11925;48.122;11.560;2024-01-15T14:27:36;7.20;96.90
23497;DHT22;11925;48.122;11.560;2024-01-15T14:30:07;7.80;99.90
23497;DHT22;11925;48.122;11.560;2024-01-15T14:32:36;7.30;89.60
23497;DHT22;11925;48.122;11.560;2024-01-15T14:35:05;7.30;88.70
23497;DHT22;11925;48.122;11.560;2024-01-15T14:37:35;7.20;87.20
23497;DHT22;11925;48.122;11.560;2024-01-15T14:40:06;7.30;86.00
23497;DHT22;11925;48.122;11.560;2024-01-15T14:42:36;7.10;87.20
23497;DHT22;11925;48.122;11.560;2024-01-15T14:45:05;7.30;87.30
23497;DHT22;11925;48.122;11.560;2024-01-15T14:47:39;7.30;87.20
23497;DHT22;11925;48.122;11.560;2024-01-15T14:50:09;6.90;88.60
23497;DHT22;11925;48.122;11.560;2024-01-15T14:52:39;7.20;90.40
23497;DHT22;11925;48.122;11.560;2024-01-15T14:55:10;7.20;79.70
23497;DHT22;11925;48.122;11.560;2024-01-15T14:57:39;7.10;74.50
23497;DHT22;11925;48.122;11.560;2024-01-15T15:00:11;7.10;74.40
23497;DHT22;11925;48.122;11.560;2024-01-15T15:02:41;7.10;74.40
23497;DHT22;11925;48.122;11.560;2024-01-15T15:05:09;7.10;74.20
23497;DHT22;11925;48.122;11.560;2024-01-15T15:07:40;7.10;74.10
23497;DHT22;11925;48.122;11.560;2024-01-15T15:10:10;7.10;74.10
23497;DHT22;11925;48.122;11.560;2024-01-15T15:12:39;7.10;74.10
23497;DHT22;11925;48.122;11.560;2024-01-15T15:15:08;7.00;74.00
23497;DHT22;11925;48.122;11.560;2024-01-15T15:17:43;7.10;74.00
23497;DHT22;11925;48.122;11.560;2024-01-15T15:20:12;7.10;73.90
23497;DHT22;11925;48.122;11.560;2024-01-15T15:22:40;7.10;74.00
23497;DHT22;11925;48.122;11.560;2024-01-15T15:25:11;7.10;74.00
23497;DHT22;11925;48.122;11.560;2024-01-15T15:27:39;7.10;74.00
23497;DHT22;11925;48.122;11.560;2024-01-15T15:30:08;7.10;74.10
23497;DHT22;11925;48.122;11.560;2024-01-15T15:32:37;7.10;74.10
23497;DHT22;11925;48.122;11.560;2024-01-15T15:35:06;7.10;74.10
23497;DHT22;11925;48.122;11.560;2024-01-15T15:37:36;7.10;74.10
23497;DHT22;11925;48.122;11.560;2024-01-15T15:40:06;7.10;74.10
23497;DHT22;11925;48.122;11.560;2024-01-15T15:42:37;7.10;74.10
23497;DHT22;11925;48.122;11.560;2024-01-15T15:45:06;7.00;74.10
23497;DHT22;11925;48.122;11.560;2024-01-15T15:47:36;7.10;74.10